sensor_id;sensor_type;location;lat;lon;timestamp;pressure;altitude;pressure_sealevel;temperature;humidity
57628;BME280;43451;49.060;10.616;2023-03-18T00:00:41;96311.78;;;4.03;100.00
57628;BME280;43451;49.060;10.616;2023-03-18T00:03:08;96308.50;;;3.90;100.00
57628;BME280;43451;49.060;10.616;2023-03-18T00:05:34;96326.19;;;3.91;100.00
57628;BME280;43451;49.060;10.616;2023-03-18T00:08:04;96321.53;;;3.88;100.00
57628;BME280;43451;49.060;10.616;2023-03-18T00:10:31;96324.34;;;3.95;100.00
57628;BME280;43451;49.060;10.616;2023-03-18T00:12:57;96323.09;;;3.89;100.00
57628;BME280;43451;49.060;10.616;2023-03-18T00:15:24;96320.81;;;3.91;100.00
57628;BME280;43451;49.060;10.616;2023-03-18T00:17:49;96318.19;;;3.94;100.00
57628;BME280;43451;49.060;10.616;2023-03-18T00:20:16;96308.38;;;3.83;100.00
57628;BME280;43451;49.060;10.616;2023-03-18T00:22:43;96313.47;;;4.11;100.00
57628;BME280;43451;49.060;10.616;2023-03-18T00:25:12;96308.44;;;3.86;100.00
57628;BME280;43451;49.060;10.616;2023-03-18T00:27:38;96310.97;;;3.76;100.00
57628;BME280;43451;49.060;10.616;2023-03-18T00:30:04;96323.50;;;3.68;100.00
57628;BME280;43451;49.060;10.616;2023-03-18T00:32:30;96325.69;;;3.62;100.00
57628;BME280;43451;49.060;10.616;2023-03-18T00:34:56;96322.13;;;3.78;100.00
57628;BME280;43451;49.060;10.616;2023-03-18T00:37:24;96330.50;;;4.18;100.00
57628;BME280;43451;49.060;10.616;2023-03-18T00:40:07;96325.84;;;4.15;100.00
57628;BME280;43451;49.060;10.616;2023-03-18T00:42:36;96333.94;;;3.96;100.00
57628;BME280;43451;49.060;10.616;2023-03-18T00:45:06;96327.69;;;3.88;100.00
57628;BME280;43451;49.060;10.616;2023-03-18T00:47:32;96329.16;;;3.86;100.00
57628;BME280;43451;49.060;10.616;2023-03-18T00:49:58;96326.09;;;3.84;100.00
57628;BME280;43451;49.060;10.616;2023-03-18T00:52:23;96334.44;;;3.79;100.00
57628;BME280;43451;49.060;10.616;2023-03-18T00:54:50;96329.91;;;3.63;100.00
57628;BME280;43451;49.060;10.616;2023-03-18T00:57:15;96335.03;;;3.49;100.00
57628;BME280;43451;49.060;10.616;2023-03-18T00:59:41;96329.22;;;3.47;100.00
57628;BME280;43451;49.060;10.616;2023-03-18T01:02:07;96330.03;;;3.70;100.00
57628;BME280;43451;49.060;10.616;2023-03-18T01:04:33;96328.78;;;3.64;100.00
57628;BME280;43451;49.060;10.616;2023-03-18T01:06:58;96334.16;;;3.64;100.00
57628;BME280;43451;49.060;10.616;2023-03-18T01:09:24;96340.53;;;3.56;100.00
57628;BME280;43451;49.060;10.616;2023-03-18T01:11:49;96335.44;;;3.51;100.00
57628;BME280;43451;49.060;10.616;2023-03-18T01:14:15;96347.19;;;3.43;100.00
57628;BME280;43451;49.060;10.616;2023-03-18T01:16:40;96339.69;;;3.71;100.00
57628;BME280;43451;49.060;10.616;2023-03-18T01:19:06;96340.16;;;3.58;100.00
57628;BME280;43451;49.060;10.616;2023-03-18T01:21:32;96333.19;;;3.53;100.00
57628;BME280;43451;49.060;10.616;2023-03-18T01:23:57;96346.19;;;3.51;100.00
57628;BME280;43451;49.060;10.616;2023-03-18T01:26:25;96344.56;;;3.46;100.00
57628;BME280;43451;49.060;10.616;2023-03-18T01:28:50;96332.34;;;3.49;100.00
57628;BME280;43451;49.060;10.616;2023-03-18T01:31:16;96338.81;;;3.67;100.00
57628;BME280;43451;49.060;10.616;2023-03-18T01:33:43;96336.56;;;3.69;100.00
57628;BME280;43451;49.060;10.616;2023-03-18T01:36:09;96347.91;;;3.82;100.00
57628;BME280;43451;49.060;10.616;2023-03-18T01:38:36;96334.94;;;3.65;100.00
57628;BME280;43451;49.060;10.616;2023-03-18T01:41:03;96348.22;;;3.58;100.00
57628;BME280;43451;49.060;10.616;2023-03-18T01:43:35;96349.84;;;3.62;100.00
57628;BME280;43451;49.060;10.616;2023-03-18T01:46:25;96349.56;;;3.67;100.00
57628;BME280;43451;49.060;10.616;2023-03-18T01:48:48;96344.75;;;3.77;100.00
57628;BME280;43451;49.060;10.616;2023-03-18T01:51:14;96353.44;;;3.70;100.00
57628;BME280;43451;49.060;10.616;2023-03-18T01:53:43;96347.88;;;3.59;100.00
57628;BME280;43451;49.060;10.616;2023-03-18T01:56:10;96352.75;;;3.54;100.00
57628;BME280;43451;49.060;10.616;2023-03-18T01:58:42;96350.34;;;3.48;100.00
57628;BME280;43451;49.060;10.616;2023-03-18T02:01:23;96349.16;;;3.46;100.00
57628;BME280;43451;49.060;10.616;2023-03-18T02:03:51;96347.91;;;3.40;100.00
57628;BME280;43451;49.060;10.616;2023-03-18T02:06:17;96352.69;;;3.31;100.00
57628;BME280;43451;49.060;10.616;2023-03-18T02:08:42;96358.31;;;3.25;100.00
57628;BME280;43451;49.060;10.616;2023-03-18T02:11:08;96350.13;;;3.18;100.00
57628;BME280;43451;49.060;10.616;2023-03-18T02:13:38;96348.22;;;3.19;100.00
57628;BME280;43451;49.060;10.616;2023-03-18T02:16:28;96353.25;;;3.20;100.00
57628;BME280;43451;49.060;10.616;2023-03-18T02:18:53;96351.97;;;3.14;100.00
57628;BME280;43451;49.060;10.616;2023-03-18T02:21:28;96349.78;;;3.20;100.00
57628;BME280;43451;49.060;10.616;2023-03-18T02:24:12;96346.72;;;3.02;100.00
57628;BME280;43451;49.060;10.616;2023-03-18T02:26:59;96352.66;;;2.92;100.00
57628;BME280;43451;49.060;10.616;2023-03-18T02:29:28;96359.25;;;2.78;100.00
57628;BME280;43451;49.060;10.616;2023-03-18T02:31:55;96351.22;;;2.63;100.00
57628;BME280;43451;49.060;10.616;2023-03-18T02:34:23;96360.31;;;2.58;100.00
57628;BME280;43451;49.060;10.616;2023-03-18T02:36:49;96363.00;;;2.58;100.00
57628;BME280;43451;49.060;10.616;2023-03-18T02:39:15;96361.78;;;2.55;100.00
57628;BME280;43451;49.060;10.616;2023-03-18T02:41:41;96363.34;;;2.56;100.00
57628;BME280;43451;49.060;10.616;2023-03-18T02:44:09;96370.59;;;2.56;100.00
57628;BME280;43451;49.060;10.616;2023-03-18T02:46:58;96363.09;;;2.62;100.00
57628;BME280;43451;49.060;10.616;2023-03-18T02:49:26;96365.84;;;2.65;100.00
57628;BME280;43451;49.060;10.616;2023-03-18T02:51:52;96371.97;;;2.66;100.00
57628;BME280;43451;49.060;10.616;2023-03-18T02:54:23;96366.88;;;2.76;100.00
57628;BME280;43451;49.060;10.616;2023-03-18T02:56:50;96371.34;;;2.72;100.00
57628;BME280;43451;49.060;10.616;2023-03-18T02:59:17;96363.13;;;2.81;100.00
57628;BME280;43451;49.060;10.616;2023-03-18T03:01:45;96374.72;;;2.85;100.00
57628;BME280;43451;49.060;10.616;2023-03-18T03:04:13;96374.69;;;3.01;100.00
57628;BME280;43451;49.060;10.616;2023-03-18T03:06:39;96369.31;;;3.01;100.00
57628;BME280;43451;49.060;10.616;2023-03-18T03:09:07;96380.34;;;2.96;100.00
57628;BME280;43451;49.060;10.616;2023-03-18T03:11:33;96378.81;;;3.14;100.00
57628;BME280;43451;49.060;10.616;2023-03-18T03:13:59;96380.28;;;3.12;100.00
57628;BME280;43451;49.060;10.616;2023-03-18T03:16:25;96372.16;;;3.08;100.00
57628;BME280;43451;49.060;10.616;2023-03-18T03:18:50;96377.97;;;2.94;100.00
57628;BME280;43451;49.060;10.616;2023-03-18T03:21:16;96374.53;;;2.94;100.00
57628;BME280;43451;49.060;10.616;2023-03-18T03:23:43;96387.16;;;2.93;100.00
57628;BME280;43451;49.060;10.616;2023-03-18T03:26:09;96383.09;;;2.99;100.00
57628;BME280;43451;49.060;10.616;2023-03-18T03:28:34;96387.31;;;3.00;100.00
57628;BME280;43451;49.060;10.616;2023-03-18T03:31:00;96393.22;;;2.90;100.00
57628;BME280;43451;49.060;10.616;2023-03-18T03:33:26;96388.78;;;2.98;100.00
57628;BME280;43451;49.060;10.616;2023-03-18T03:35:53;96390.81;;;2.85;100.00
57628;BME280;43451;49.060;10.616;2023-03-18T03:38:19;96392.13;;;2.75;100.00
57628;BME280;43451;49.060;10.616;2023-03-18T03:40:46;96391.00;;;2.76;100.00
57628;BME280;43451;49.060;10.616;2023-03-18T03:43:13;96389.97;;;2.65;100.00
57628;BME280;43451;49.060;10.616;2023-03-18T03:45:39;96394.53;;;2.81;100.00
57628;BME280;43451;49.060;10.616;2023-03-18T03:48:06;96394.41;;;2.73;100.00
57628;BME280;43451;49.060;10.616;2023-03-18T03:50:33;96390.94;;;2.73;100.00
57628;BME280;43451;49.060;10.616;2023-03-18T03:52:59;96399.41;;;2.75;100.00
57628;BME280;43451;49.060;10.616;2023-03-18T03:55:24;96403.38;;;2.65;100.00
57628;BME280;43451;49.060;10.616;2023-03-18T03:57:50;96404.25;;;2.69;100.00
57628;BME280;43451;49.060;10.616;2023-03-18T04:00:18;96404.53;;;2.64;100.00
57628;BME280;43451;49.060;10.616;2023-03-18T04:02:45;96403.81;;;2.67;100.00
57628;BME280;43451;49.060;10.616;2023-03-18T04:05:13;96400.38;;;2.67;100.00
57628;BME280;43451;49.060;10.616;2023-03-18T04:07:39;96406.91;;;2.69;100.00
57628;BME280;43451;49.060;10.616;2023-03-18T04:10:06;96400.75;;;2.85;100.00
57628;BME280;43451;49.060;10.616;2023-03-18T04:12:33;96405.34;;;2.84;100.00
57628;BME280;43451;49.060;10.616;2023-03-18T04:15:00;96407.72;;;2.86;100.00
57628;BME280;43451;49.060;10.616;2023-03-18T04:17:25;96407.09;;;2.92;100.00
57628;BME280;43451;49.060;10.616;2023-03-18T04:19:51;96401.19;;;3.02;100.00
57628;BME280;43451;49.060;10.616;2023-03-18T04:22:16;96404.75;;;2.91;100.00
57628;BME280;43451;49.060;10.616;2023-03-18T04:24:42;96411.41;;;2.81;100.00
57628;BME280;43451;49.060;10.616;2023-03-18T04:27:09;96419.91;;;2.67;100.00
57628;BME280;43451;49.060;10.616;2023-03-18T04:29:36;96401.84;;;2.64;100.00
57628;BME280;43451;49.060;10.616;2023-03-18T04:32:01;96408.91;;;2.56;100.00
57628;BME280;43451;49.060;10.616;2023-03-18T04:34:27;96403.47;;;2.53;100.00
57628;BME280;43451;49.060;10.616;2023-03-18T04:36:53;96398.81;;;2.50;100.00
57628;BME280;43451;49.060;10.616;2023-03-18T04:39:20;96401.94;;;2.52;100.00
57628;BME280;43451;49.060;10.616;2023-03-18T04:41:46;96405.53;;;2.60;100.00
57628;BME280;43451;49.060;10.616;2023-03-18T04:44:12;96405.13;;;2.73;100.00
57628;BME280;43451;49.060;10.616;2023-03-18T04:46:38;96407.97;;;2.81;100.00
57628;BME280;43451;49.060;10.616;2023-03-18T04:49:03;96404.25;;;2.69;100.00
57628;BME280;43451;49.060;10.616;2023-03-18T04:51:29;96408.75;;;2.65;100.00
57628;BME280;43451;49.060;10.616;2023-03-18T04:53:55;96407.44;;;2.59;100.00
57628;BME280;43451;49.060;10.616;2023-03-18T04:56:20;96413.19;;;2.58;100.00
57628;BME280;43451;49.060;10.616;2023-03-18T04:58:46;96411.72;;;2.60;100.00
57628;BME280;43451;49.060;10.616;2023-03-18T05:01:12;96405.44;;;2.88;100.00
57628;BME280;43451;49.060;10.616;2023-03-18T05:03:39;96407.19;;;2.64;100.00
57628;BME280;43451;49.060;10.616;2023-03-18T05:06:06;96410.22;;;2.47;100.00
57628;BME280;43451;49.060;10.616;2023-03-18T05:08:32;96416.97;;;2.41;100.00
57628;BME280;43451;49.060;10.616;2023-03-18T05:10:58;96421.13;;;2.38;100.00
57628;BME280;43451;49.060;10.616;2023-03-18T05:13:24;96421.03;;;2.35;100.00
57628;BME280;43451;49.060;10.616;2023-03-18T05:15:49;96429.06;;;2.35;100.00
57628;BME280;43451;49.060;10.616;2023-03-18T05:18:15;96436.94;;;2.27;100.00
57628;BME280;43451;49.060;10.616;2023-03-18T05:20:41;96433.84;;;2.25;100.00
57628;BME280;43451;49.060;10.616;2023-03-18T05:23:06;96430.00;;;2.26;100.00
57628;BME280;43451;49.060;10.616;2023-03-18T05:25:32;96432.06;;;2.17;100.00
57628;BME280;43451;49.060;10.616;2023-03-18T05:27:58;96437.34;;;2.14;100.00
57628;BME280;43451;49.060;10.616;2023-03-18T05:30:23;96439.03;;;2.06;100.00
57628;BME280;43451;49.060;10.616;2023-03-18T05:32:49;96436.38;;;2.06;100.00
57628;BME280;43451;49.060;10.616;2023-03-18T05:35:14;96433.13;;;2.13;100.00
57628;BME280;43451;49.060;10.616;2023-03-18T05:37:40;96435.09;;;2.16;100.00
57628;BME280;43451;49.060;10.616;2023-03-18T05:40:06;96435.88;;;2.16;100.00
57628;BME280;43451;49.060;10.616;2023-03-18T05:42:37;96423.44;;;2.24;100.00
57628;BME280;43451;49.060;10.616;2023-03-18T05:45:04;96437.69;;;2.28;100.00
57628;BME280;43451;49.060;10.616;2023-03-18T05:47:30;96440.75;;;2.26;100.00
57628;BME280;43451;49.060;10.616;2023-03-18T05:49:56;96440.75;;;2.26;100.00
57628;BME280;43451;49.060;10.616;2023-03-18T05:52:21;96435.03;;;2.28;100.00
57628;BME280;43451;49.060;10.616;2023-03-18T05:54:47;96426.75;;;2.33;100.00
57628;BME280;43451;49.060;10.616;2023-03-18T05:57:14;96437.09;;;2.35;100.00
57628;BME280;43451;49.060;10.616;2023-03-18T05:59:39;96435.09;;;2.31;100.00
57628;BME280;43451;49.060;10.616;2023-03-18T06:02:05;96440.47;;;2.31;100.00
57628;BME280;43451;49.060;10.616;2023-03-18T06:04:30;96428.38;;;2.38;100.00
57628;BME280;43451;49.060;10.616;2023-03-18T06:06:56;96430.38;;;2.41;100.00
57628;BME280;43451;49.060;10.616;2023-03-18T06:09:22;96434.00;;;2.32;100.00
57628;BME280;43451;49.060;10.616;2023-03-18T06:11:48;96432.28;;;2.40;100.00
57628;BME280;43451;49.060;10.616;2023-03-18T06:14:13;96439.03;;;2.50;100.00
57628;BME280;43451;49.060;10.616;2023-03-18T06:16:40;96438.09;;;2.58;100.00
57628;BME280;43451;49.060;10.616;2023-03-18T06:19:06;96434.19;;;2.71;100.00
57628;BME280;43451;49.060;10.616;2023-03-18T06:21:33;96424.50;;;2.83;100.00
57628;BME280;43451;49.060;10.616;2023-03-18T06:23:59;96422.13;;;2.97;100.00
57628;BME280;43451;49.060;10.616;2023-03-18T06:26:25;96430.63;;;2.99;100.00
57628;BME280;43451;49.060;10.616;2023-03-18T06:28:51;96423.06;;;3.05;100.00
57628;BME280;43451;49.060;10.616;2023-03-18T06:31:17;96425.28;;;3.18;100.00
57628;BME280;43451;49.060;10.616;2023-03-18T06:33:43;96427.41;;;3.29;100.00
57628;BME280;43451;49.060;10.616;2023-03-18T06:36:08;96431.16;;;3.24;100.00
57628;BME280;43451;49.060;10.616;2023-03-18T06:38:35;96436.63;;;3.47;100.00
57628;BME280;43451;49.060;10.616;2023-03-18T06:41:00;96434.66;;;3.63;100.00
57628;BME280;43451;49.060;10.616;2023-03-18T06:43:26;96441.88;;;3.79;100.00
57628;BME280;43451;49.060;10.616;2023-03-18T06:45:52;96439.06;;;3.91;100.00
57628;BME280;43451;49.060;10.616;2023-03-18T06:48:18;96438.59;;;4.08;100.00
57628;BME280;43451;49.060;10.616;2023-03-18T06:50:44;96441.19;;;4.24;100.00
57628;BME280;43451;49.060;10.616;2023-03-18T06:53:09;96443.72;;;4.36;100.00
57628;BME280;43451;49.060;10.616;2023-03-18T06:55:35;96436.31;;;4.53;100.00
57628;BME280;43451;49.060;10.616;2023-03-18T06:58:02;96441.03;;;4.59;100.00
57628;BME280;43451;49.060;10.616;2023-03-18T07:00:28;96448.94;;;4.72;100.00
57628;BME280;43451;49.060;10.616;2023-03-18T07:02:53;96449.81;;;4.56;100.00
57628;BME280;43451;49.060;10.616;2023-03-18T07:05:18;96452.81;;;4.74;100.00
57628;BME280;43451;49.060;10.616;2023-03-18T07:07:45;96461.38;;;4.80;100.00
57628;BME280;43451;49.060;10.616;2023-03-18T07:10:24;96456.16;;;4.91;100.00
57628;BME280;43451;49.060;10.616;2023-03-18T07:12:51;96457.16;;;5.05;100.00
57628;BME280;43451;49.060;10.616;2023-03-18T07:15:18;96456.69;;;5.26;100.00
57628;BME280;43451;49.060;10.616;2023-03-18T07:17:47;96469.69;;;5.47;100.00
57628;BME280;43451;49.060;10.616;2023-03-18T07:20:14;96468.88;;;5.43;100.00
57628;BME280;43451;49.060;10.616;2023-03-18T07:22:40;96464.81;;;5.56;100.00
57628;BME280;43451;49.060;10.616;2023-03-18T07:25:07;96478.06;;;5.69;100.00
57628;BME280;43451;49.060;10.616;2023-03-18T07:27:32;96472.78;;;5.76;100.00
57628;BME280;43451;49.060;10.616;2023-03-18T07:29:59;96482.19;;;5.89;100.00
57628;BME280;43451;49.060;10.616;2023-03-18T07:32:26;96484.66;;;6.01;100.00
57628;BME280;43451;49.060;10.616;2023-03-18T07:34:51;96491.38;;;6.15;100.00
57628;BME280;43451;49.060;10.616;2023-03-18T07:37:17;96491.38;;;6.15;100.00
57628;BME280;43451;49.060;10.616;2023-03-18T07:39:42;96491.09;;;6.23;100.00
57628;BME280;43451;49.060;10.616;2023-03-18T07:42:09;96485.00;;;6.30;100.00
57628;BME280;43451;49.060;10.616;2023-03-18T07:44:35;96487.41;;;6.39;100.00
57628;BME280;43451;49.060;10.616;2023-03-18T07:47:01;96491.38;;;6.48;100.00
57628;BME280;43451;49.060;10.616;2023-03-18T07:49:28;96493.00;;;6.57;100.00
57628;BME280;43451;49.060;10.616;2023-03-18T07:51:54;96489.56;;;6.60;100.00
57628;BME280;43451;49.060;10.616;2023-03-18T07:54:20;96486.94;;;6.67;100.00
57628;BME280;43451;49.060;10.616;2023-03-18T07:56:46;96490.09;;;6.76;100.00
57628;BME280;43451;49.060;10.616;2023-03-18T07:59:13;96492.84;;;6.83;100.00
57628;BME280;43451;49.060;10.616;2023-03-18T08:01:38;96481.38;;;6.93;100.00
57628;BME280;43451;49.060;10.616;2023-03-18T08:04:04;96484.19;;;7.08;100.00
57628;BME280;43451;49.060;10.616;2023-03-18T08:06:30;96488.16;;;7.21;100.00
57628;BME280;43451;49.060;10.616;2023-03-18T08:08:57;96483.16;;;7.23;100.00
57628;BME280;43451;49.060;10.616;2023-03-18T08:11:23;96485.09;;;7.26;100.00
57628;BME280;43451;49.060;10.616;2023-03-18T08:13:48;96486.28;;;7.32;100.00
57628;BME280;43451;49.060;10.616;2023-03-18T08:16:14;96489.03;;;7.36;100.00
57628;BME280;43451;49.060;10.616;2023-03-18T08:18:39;96489.09;;;7.47;100.00
57628;BME280;43451;49.060;10.616;2023-03-18T08:21:05;96483.41;;;7.66;100.00
57628;BME280;43451;49.060;10.616;2023-03-18T08:23:32;96492.53;;;8.09;100.00
57628;BME280;43451;49.060;10.616;2023-03-18T08:25:57;96493.38;;;8.28;100.00
57628;BME280;43451;49.060;10.616;2023-03-18T08:28:23;96487.56;;;8.29;100.00
57628;BME280;43451;49.060;10.616;2023-03-18T08:30:54;96491.44;;;8.32;100.00
57628;BME280;43451;49.060;10.616;2023-03-18T08:33:21;96498.88;;;8.53;100.00
57628;BME280;43451;49.060;10.616;2023-03-18T08:35:47;96491.97;;;8.73;100.00
57628;BME280;43451;49.060;10.616;2023-03-18T08:38:13;96492.72;;;8.84;100.00
57628;BME280;43451;49.060;10.616;2023-03-18T08:40:39;96493.13;;;8.94;100.00
57628;BME280;43451;49.060;10.616;2023-03-18T08:43:05;96481.94;;;9.20;98.73
57628;BME280;43451;49.060;10.616;2023-03-18T08:45:31;96483.47;;;9.28;99.02
57628;BME280;43451;49.060;10.616;2023-03-18T08:47:58;96486.53;;;9.41;97.99
57628;BME280;43451;49.060;10.616;2023-03-18T08:50:24;96475.28;;;9.68;93.22
57628;BME280;43451;49.060;10.616;2023-03-18T08:52:54;96480.28;;;9.76;89.12
57628;BME280;43451;49.060;10.616;2023-03-18T08:55:21;96481.41;;;9.86;88.86
57628;BME280;43451;49.060;10.616;2023-03-18T08:57:47;96485.63;;;10.05;84.38
57628;BME280;43451;49.060;10.616;2023-03-18T09:00:13;96476.66;;;10.19;84.10
57628;BME280;43451;49.060;10.616;2023-03-18T09:02:39;96471.94;;;10.34;84.04
57628;BME280;43451;49.060;10.616;2023-03-18T09:05:06;96477.66;;;10.57;83.94
57628;BME280;43451;49.060;10.616;2023-03-18T09:07:31;96483.47;;;10.59;84.70
57628;BME280;43451;49.060;10.616;2023-03-18T09:09:57;96479.16;;;10.69;85.30
57628;BME280;43451;49.060;10.616;2023-03-18T09:12:22;96480.59;;;10.84;82.76
57628;BME280;43451;49.060;10.616;2023-03-18T09:14:48;96475.09;;;10.95;80.84
57628;BME280;43451;49.060;10.616;2023-03-18T09:17:14;96474.16;;;11.12;77.49
57628;BME280;43451;49.060;10.616;2023-03-18T09:19:40;96469.75;;;11.33;74.76
57628;BME280;43451;49.060;10.616;2023-03-18T09:22:06;96480.66;;;11.29;77.91
57628;BME280;43451;49.060;10.616;2023-03-18T09:24:32;96476.72;;;11.34;78.53
57628;BME280;43451;49.060;10.616;2023-03-18T09:26:59;96480.22;;;11.31;78.84
57628;BME280;43451;49.060;10.616;2023-03-18T09:29:24;96474.31;;;11.43;79.94
57628;BME280;43451;49.060;10.616;2023-03-18T09:31:50;96470.84;;;11.39;78.31
57628;BME280;43451;49.060;10.616;2023-03-18T09:34:16;96478.69;;;11.30;82.05
57628;BME280;43451;49.060;10.616;2023-03-18T09:36:41;96474.31;;;11.43;81.18
57628;BME280;43451;49.060;10.616;2023-03-18T09:39:13;96480.84;;;11.49;82.34
57628;BME280;43451;49.060;10.616;2023-03-18T09:44:54;96473.28;;;11.68;81.15
57628;BME280;43451;49.060;10.616;2023-03-18T09:47:42;96473.03;;;11.96;75.75
57628;BME280;43451;49.060;10.616;2023-03-18T09:50:40;96464.38;;;12.01;76.05
57628;BME280;43451;49.060;10.616;2023-03-18T09:56:06;96466.31;;;12.35;70.40
57628;BME280;43451;49.060;10.616;2023-03-18T10:01:34;96468.00;;;12.83;69.99
57628;BME280;43451;49.060;10.616;2023-03-18T10:06:36;96466.66;;;12.68;71.75
57628;BME280;43451;49.060;10.616;2023-03-18T10:11:45;96459.34;;;12.88;68.80
57628;BME280;43451;49.060;10.616;2023-03-18T10:14:39;96453.41;;;12.93;62.89
57628;BME280;43451;49.060;10.616;2023-03-18T10:17:22;96455.34;;;13.20;63.95
57628;BME280;43451;49.060;10.616;2023-03-18T10:19:52;96451.72;;;13.50;54.15
57628;BME280;43451;49.060;10.616;2023-03-18T10:27:53;96446.09;;;13.61;56.54
57628;BME280;43451;49.060;10.616;2023-03-18T10:30:56;96448.00;;;13.64;54.21
57628;BME280;43451;49.060;10.616;2023-03-18T10:33:44;96454.38;;;13.77;53.71
57628;BME280;43451;49.060;10.616;2023-03-18T10:36:19;96441.63;;;13.90;55.69
57628;BME280;43451;49.060;10.616;2023-03-18T10:38:49;96444.50;;;14.03;57.18
57628;BME280;43451;49.060;10.616;2023-03-18T10:41:33;96448.66;;;14.11;53.82
57628;BME280;43451;49.060;10.616;2023-03-18T10:44:21;96442.50;;;14.24;53.66
57628;BME280;43451;49.060;10.616;2023-03-18T10:49:42;96439.44;;;14.22;52.77
57628;BME280;43451;49.060;10.616;2023-03-18T10:52:15;96445.53;;;14.29;52.14
57628;BME280;43451;49.060;10.616;2023-03-18T10:54:44;96445.44;;;14.33;54.45
57628;BME280;43451;49.060;10.616;2023-03-18T10:57:15;96438.47;;;14.32;52.92
57628;BME280;43451;49.060;10.616;2023-03-18T10:59:42;96440.25;;;14.58;54.89
57628;BME280;43451;49.060;10.616;2023-03-18T11:02:42;96435.91;;;14.77;48.49
57628;BME280;43451;49.060;10.616;2023-03-18T11:07:54;96439.84;;;14.76;45.65
57628;BME280;43451;49.060;10.616;2023-03-18T11:10:24;96434.78;;;14.58;52.11
57628;BME280;43451;49.060;10.616;2023-03-18T11:12:53;96434.75;;;14.78;49.86
57628;BME280;43451;49.060;10.616;2023-03-18T11:15:22;96428.25;;;14.89;44.75
57628;BME280;43451;49.060;10.616;2023-03-18T11:17:50;96435.41;;;14.82;46.37
57628;BME280;43451;49.060;10.616;2023-03-18T11:20:23;96420.88;;;14.85;43.48
57628;BME280;43451;49.060;10.616;2023-03-18T11:23:04;96423.28;;;14.83;44.38
57628;BME280;43451;49.060;10.616;2023-03-18T11:25:37;96420.69;;;15.09;49.31
57628;BME280;43451;49.060;10.616;2023-03-18T11:28:04;96416.41;;;15.24;50.71
57628;BME280;43451;49.060;10.616;2023-03-18T11:30:46;96416.78;;;15.26;50.76
57628;BME280;43451;49.060;10.616;2023-03-18T11:33:14;96422.25;;;15.26;47.54
57628;BME280;43451;49.060;10.616;2023-03-18T11:38:18;96416.41;;;15.41;45.10
57628;BME280;43451;49.060;10.616;2023-03-18T11:40:45;96410.06;;;15.44;45.01
57628;BME280;43451;49.060;10.616;2023-03-18T11:43:20;96402.56;;;15.31;48.30
57628;BME280;43451;49.060;10.616;2023-03-18T11:48:14;96399.94;;;15.57;45.86
57628;BME280;43451;49.060;10.616;2023-03-18T11:53:53;96393.94;;;15.62;45.68
57628;BME280;43451;49.060;10.616;2023-03-18T11:56:33;96385.03;;;15.74;45.77
57628;BME280;43451;49.060;10.616;2023-03-18T12:15:49;96367.00;;;16.02;49.94
57628;BME280;43451;49.060;10.616;2023-03-18T12:37:26;96360.47;;;16.38;48.34
57628;BME280;43451;49.060;10.616;2023-03-18T12:40:01;96353.22;;;16.70;46.98
57628;BME280;43451;49.060;10.616;2023-03-18T12:45:40;96355.81;;;16.99;44.00
57628;BME280;43451;49.060;10.616;2023-03-18T12:48:35;96351.91;;;16.62;44.33
57628;BME280;43451;49.060;10.616;2023-03-18T12:51:11;96352.22;;;16.51;43.63
57628;BME280;43451;49.060;10.616;2023-03-18T12:53:42;96353.75;;;16.65;44.79
57628;BME280;43451;49.060;10.616;2023-03-18T12:56:17;96349.72;;;16.44;44.00
57628;BME280;43451;49.060;10.616;2023-03-18T12:59:18;96356.41;;;16.43;43.37
57628;BME280;43451;49.060;10.616;2023-03-18T13:02:08;96353.66;;;16.56;43.63
57628;BME280;43451;49.060;10.616;2023-03-18T13:04:41;96345.63;;;16.61;45.63
57628;BME280;43451;49.060;10.616;2023-03-18T13:07:18;96346.41;;;16.49;44.07
57628;BME280;43451;49.060;10.616;2023-03-18T13:09:48;96345.09;;;16.79;42.79
57628;BME280;43451;49.060;10.616;2023-03-18T13:12:29;96337.09;;;16.85;43.01
57628;BME280;43451;49.060;10.616;2023-03-18T13:14:59;96338.63;;;16.86;42.99
57628;BME280;43451;49.060;10.616;2023-03-18T13:17:32;96337.91;;;17.07;41.83
57628;BME280;43451;49.060;10.616;2023-03-18T13:20:05;96345.97;;;17.24;43.08
57628;BME280;43451;49.060;10.616;2023-03-18T13:25:06;96344.16;;;17.08;42.34
57628;BME280;43451;49.060;10.616;2023-03-18T13:44:20;96329.09;;;17.12;45.59
57628;BME280;43451;49.060;10.616;2023-03-18T13:46:57;96327.31;;;17.18;46.70
57628;BME280;43451;49.060;10.616;2023-03-18T13:49:28;96329.50;;;17.24;44.14
57628;BME280;43451;49.060;10.616;2023-03-18T13:52:01;96318.13;;;17.34;43.74
57628;BME280;43451;49.060;10.616;2023-03-18T13:54:36;96318.41;;;17.49;45.33
57628;BME280;43451;49.060;10.616;2023-03-18T13:59:47;96318.31;;;17.18;43.37
57628;BME280;43451;49.060;10.616;2023-03-18T14:03:05;96316.03;;;17.16;43.22
57628;BME280;43451;49.060;10.616;2023-03-18T14:05:39;96306.81;;;17.10;44.20
57628;BME280;43451;49.060;10.616;2023-03-18T14:21:45;96296.47;;;16.80;46.75
57628;BME280;43451;49.060;10.616;2023-03-18T14:32:02;96296.94;;;16.65;46.69
57628;BME280;43451;49.060;10.616;2023-03-18T14:34:56;96303.50;;;16.55;47.16
57628;BME280;43451;49.060;10.616;2023-03-18T14:37:29;96303.44;;;16.59;46.08
57628;BME280;43451;49.060;10.616;2023-03-18T14:40:12;96286.84;;;16.62;46.07
57628;BME280;43451;49.060;10.616;2023-03-18T14:43:00;96295.63;;;16.57;47.45
57628;BME280;43451;49.060;10.616;2023-03-18T14:45:34;96298.25;;;16.61;47.72
57628;BME280;43451;49.060;10.616;2023-03-18T14:48:05;96287.81;;;16.68;46.98
57628;BME280;43451;49.060;10.616;2023-03-18T14:50:41;96291.44;;;16.65;46.28
57628;BME280;43451;49.060;10.616;2023-03-18T14:53:24;96288.25;;;16.67;46.21
57628;BME280;43451;49.060;10.616;2023-03-18T14:55:53;96290.22;;;16.66;46.13